NWS Home NWS Lubbock West Texas Mesonet                      Daily Summary For 02/23/2021

Latest   N   C   S   Daily Sum   3hrΔ   24hrΔ   Soil Data 
Site Map   24hr Precip   72hr Precip   Google Plot


Station Time of Last Max Temp Min Temp Max/Min Dew Pt. Max/Min RH 10m Avg Wind 2m Avg Wind Peak Gust @ 33ft (mph) Potential Evapotranspiration
mm/day or in/day
Rain Sum Solar Rad
MJ/m^2
% Clear Day Red Flag
Abernathy 5ENE 11:59 PM 79 36 57 /28 68 / 47 14.2  (N) 10.9 41.7 mph 240° @ 0339 PM 4.6 or 0.18 0.00 20.8 153.2 269
Adrian 6WSW 11:59 PM 79 36 57 /28 68 / 47 19.3  (S) 14.3 52.9 mph 249° @ 0405 PM 4.8 or 0.19 0.00 18.9 145.1 335
Aiken 3WSW 11:59 PM 79 36 57 /28 68 / 47 13.6  (N) 10.1 42.5 mph 228° @ 0411 PM 4.3 or 0.17 0.00 21.5 160.2 242
Amarillo 15NNW 11:59 PM 79 36 57 /28 68 / 47 14  (SW) 9.7 41.7 mph 240° @ 0359 PM 4.6 or 0.18 0.00 17.8 138.5 236
Amarillo 7SSE 11:59 PM 79 36 57 /28 68 / 47 16.3  (W) 11.7 46.8 mph 239° @ 0326 PM 4.6 or 0.18 0.00 19 145.8 311
Amarillo 9NNE 11:59 PM 79 36 57 /28 68 / 47 12.4  (S) 9.5 42.5 mph 234° @ 0323 PM 3.8 or 0.15 0.00 18.4 143 160
Amherst 1NE 11:55 PM 79 36 57 /28 68 / 47 13.3  (N) 9.4 36.4 mph 229° @ 0400 PM 4.3 or 0.17 0.00 4.1 152.1 215
Andrews 2E 11:59 PM 79 36 57 /28 68 / 47 10.9  (SW) 6.4 36.2 mph 227° @ 0328 PM 3.8 or 0.15 0.00 21.7 152.2 23
Anton 6SSW 11:55 PM 79 36 57 /28 68 / 47 13.9  (NW) 10.7 40 mph 231° @ 0355 PM 4.6 or 0.18 0.00 20.3 148.8 305
Aspermont 3NE 11:55 PM 79 36 57 /28 68 / 47 12.1  (W) 7.7 31 mph 214° @ 0440 PM 4.3 or 0.17 0.00 4 147.5 15
Big Bend NP - Castolon 11:59 PM 79 36 57 /28 68 / 47 3.7  (NW) 2.5 13.2 mph 150° @ 0332 PM 2.5 or 0.1 0.00 22.2 141.8 0
Big Bend NP - Persimmon Gap 11:59 PM 79 36 57 /28 68 / 47 5  (S) 3.7 17.5 mph 186° @ 0326 PM 2.8 or 0.11 0.00 21.6 139.3 0
Big Lake 1WNW 11:59 PM 79 36 57 /28 68 / 47 10.9  (S) 7.9 28.7 mph 180° @ 0451 PM 3.6 or 0.14 0.00 22.2 150.6 0
Bootleg 11WNW 11:59 PM 79 36 57 /28 68 / 47 20.4  (S) 15.5 56.8 mph 241° @ 0327 PM 5.3 or 0.21 0.00 17.9 135.5 285
Borger 7E 11:59 PM 79 36 57 /28 68 / 47 15.8  (SW) 11.6 46 mph 233° @ 0403 PM 4.6 or 0.18 0.00 19.4 153 186
Boys Ranch 1WSW 11:59 PM 79 36 57 /28 68 / 47 11.2  (NW) 9.3 46.1 mph 240° @ 0356 PM 3.8 or 0.15 0.00 18.6 145.4 174
Brownfield 2S 11:59 PM 79 36 57 /28 68 / 47 14.4  (NW) 10.3 38.4 mph 225° @ 0157 PM 4.8 or 0.19 0.00 20.6 148.1 246
Canadian 6E 11:59 PM 79 36 57 /28 68 / 47 11  (W) 6.9 32.7 mph 198° @ 0258 PM 3.6 or 0.14 0.00 18.8 150.4 6
Caprock Canyons State Park 11:59 PM 79 36 57 /28 68 / 47 15.5  (NW) 11.3 39.8 mph 285° @ 1016 PM 4.8 or 0.19 0.00 21 158.9 335
Childress 2NNE 11:55 PM 79 36 57 /28 68 / 47 12  (E) 7.7 34.5 mph 204° @ 0440 PM 4.1 or 0.16 0.00 19.7 149.9 50
Clarendon 2WSW 11:55 PM 79 36 57 /28 68 / 47 12  (W) 8.4 39.8 mph 225° @ 0500 PM 3.8 or 0.15 0.00 20 153.4 160
Claude 12SW 11:59 PM 79 36 57 /28 68 / 47 12.4  (SW) 9.4 41.3 mph 238° @ 0337 PM 3.6 or 0.14 0.00 20.9 160.4 129
Clyde 2WNW 11:59 PM 79 36 57 /28 68 / 47 16.1  (SW) 11.9 35.1 mph 219° @ 0329 PM 4.6 or 0.18 0.00 20.6 146.2 0
Colorado City 5NW 11:59 PM 79 36 57 /28 68 / 47 9.6  (S) 6.2 31.5 mph 205° @ 0433 PM 3.8 or 0.15 0.00 20.8 147.1 17
Comanche Springs 11:59 PM 79 36 57 /28 68 / 47 8.3  (W) 5.4 31.8 mph 209° @ 0234 PM 3.3 or 0.13 0.00 21.3 160 1
Coyanosa 2N 11:59 PM 79 36 57 /28 68 / 47 5.9  (S) 3 14.6 mph 177° @ 0206 PM 3 or 0.12 0.00 21.6 146.8 0
Crane 1NNW 11:59 PM 79 36 57 /28 68 / 47 10.4  (S) 7.2 32.9 mph 174° @ 0707 PM 3.8 or 0.15 0.00 22.4 152.7 0
Crowell 1E 11:59 PM 79 36 57 /28 68 / 47 11.5  (NW) 8.7 29.1 mph 210° @ 0358 PM 4.1 or 0.16 0.00 20.3 152.6 5
Dell City 11:59 PM 79 36 57 /28 68 / 47 6.5  (NW) 4.1 26.6 mph 255° @ 0416 PM 2.8 or 0.11 0.00 21.2 145.9 0
Denver City 7WNW 11:55 PM 79 36 57 /28 68 / 47 15.6  (W) 10.9 37.6 mph 222° @ 0400 PM 4.8 or 0.19 0.00 22.1 157.8 270
Dimmitt 2NE 11:55 PM 79 36 57 /28 68 / 47 16.7  (NE) 14.1 47.1 mph 245° @ 0515 PM 4.3 or 0.17 0.00 19.8 148.9 395
Doole 3WNW 11:59 PM 79 36 57 /28 68 / 47 14.5  (SW) 10.3 34.9 mph 196° @ 1027 PM 4.1 or 0.16 0.00 21.4 147.1 0
Dora NM 2SW 11:55 PM 79 36 57 /28 68 / 47 14.8  (W) 11.4 34.8 mph 250° @ 0240 PM 4.3 or 0.17 0.00 19.4 141.9 235
Dozier 3W 11:59 PM 79 36 57 /28 68 / 47 8.5  (W) 4.9 37 mph 226° @ 0510 PM 3 or 0.12 0.00 17 131.9 23
Earth 9WSW 11:59 PM 79 36 57 /28 68 / 47 15.1  (NW) 12.5 41.7 mph 227° @ 0426 PM 4.6 or 0.18 0.00 20.4 151.4 248
Endee NM 2SW 11:59 PM 79 36 57 /28 68 / 47 16.1  (SW) 11.9 49.1 mph 239° @ 0347 PM 4.6 or 0.18 0.00 18.2 139.1 302
Estelline 3SSE 11:59 PM 79 36 57 /28 68 / 47 10  (W) 6.4 37.3 mph 221° @ 0407 PM 3.8 or 0.15 0.00 19.5 148.4 67
Floydada 2NNE 11:55 PM 79 36 57 /28 68 / 47 13.2  (NE) 10.2 38.9 mph 221° @ 0450 PM 4.3 or 0.17 0.00 20.2 150 230
Fluvanna 3WNW 11:55 PM 79 36 57 /28 68 / 47 13.8  (S) 9.8 37.1 mph 215° @ 0450 PM 4.6 or 0.18 0.00 19.4 138.8 205
Fort Chadbourne 11:59 PM 79 36 57 /28 68 / 47 8.6  (NE) 6.1 28.8 mph 229° @ 0208 PM 3 or 0.12 0.00 20.2 141.1 0
Fort Lancaster 11:59 PM 79 36 57 /28 68 / 47 6.4  (E) 4.4 25.2 mph 147° @ 0302 PM 2.5 or 0.1 0.00 21.1 141 0
Fort Lewis CO 11:59 PM 79 36 57 /28 68 / 47 9.4  (NE) 6.9 27 mph 296° @ 0545 PM 1.3 or 0.05 0.00 20.4 164.9 0
Fort McKavett 11:59 PM 79 36 57 /28 68 / 47 9  (SW) 4.9 27.1 mph 198° @ 0325 PM 2.8 or 0.11 0.00 19.8 133.4 0
Friona 2NE 11:55 PM 79 36 57 /28 68 / 47 17.3  (W) 13.4 47.1 mph 236° @ 0215 PM 4.6 or 0.18 0.00 19.7 148.3 325
Fritch 1WNW 11:59 PM 79 36 57 /28 68 / 47 14.9  (W) 12.2 42.7 mph 226° @ 0302 PM 4.3 or 0.17 0.00 18.4 144.6 244
Gail 2ESE 11:59 PM 79 36 57 /28 68 / 47 11.6  (SW) 6.8 35.1 mph 217° @ 0536 PM 4.3 or 0.17 0.00 21.3 151.7 62
Goodlett 3W 11:55 PM 79 36 57 /28 68 / 47 12.6  (N) 8.6 35.7 mph 205° @ 0350 PM 4.1 or 0.16 0.00 21 159.3 170
Goodnight 11:59 PM 79 36 57 /28 68 / 47 15.9  (W) 11.3 45.5 mph 225° @ 0302 PM 4.6 or 0.18 0.00 18.9 145.7 190
Graham 5SSW 11:59 PM 79 36 57 /28 68 / 47 14.1  (W) 10.1 41.7 mph 205° @ 0246 PM 4.6 or 0.18 0.00 21.5 154.6 112
Guadalupe Mtns Natl Park 11:59 PM 79 36 57 /28 68 / 47 16  (SW) 12 51.5 mph 260° @ 0757 PM 3.8 or 0.15 0.00 22.1 149.6 480
Guthrie 10WSW 11:59 PM 79 36 57 /28 68 / 47 11.8  (N) 7.4 36.2 mph 206° @ 0531 PM 4.3 or 0.17 0.00 21.2 156.3 126
Hackberry 2SSE 11:59 PM 79 36 57 /28 68 / 47 12.8  (W) 9.4 35 mph 215° @ 1111 PM 4.3 or 0.17 0.00 21.9 163.5 79
Happy 1E 11:59 PM 79 36 57 /28 68 / 47 17.2  (N) 14.2 47.6 mph 240° @ 0420 PM 4.6 or 0.18 0.00 20.4 155 332
Hart 3N 11:55 PM 79 36 57 /28 68 / 47 14.1  (NE) 11 41.7 mph 232° @ 0410 PM 4.3 or 0.17 0.00 20.7 154.8 305
Haskell 1NW 11:55 PM 79 36 57 /28 68 / 47 13.8  (S) 10.1 31.4 mph 224° @ 0415 PM 4.6 or 0.18 0.00 19.7 143.7 45
Hefner 1SW 11:59 PM 79 36 57 /28 68 / 47 15.7  (SW) 10.6 32.7 mph 204° @ 1155 PM 4.8 or 0.19 0.02 20.4 150.7 46
Hereford 2NW 11:55 PM 79 36 57 /28 68 / 47 17  (NW) 13.1 47.1 mph 247° @ 0600 PM 4.6 or 0.18 0.00 19.1 144.9 300
Hobbs NM 5NW 11:59 PM 79 36 57 /28 68 / 47 12.4  (W) 9 36.6 mph 236° @ 0359 PM 4.1 or 0.16 0.00 21.9 154.9 96
Jayton 1SSE 11:55 PM 79 36 57 /28 68 / 47 11.5  (NW) 8.4 33.1 mph 212° @ 0440 PM 4.3 or 0.17 0.00 20.2 147.4 5
Junction 1SSW 11:59 PM 79 36 57 /28 68 / 47 5.6  (S) 3 24.6 mph 205° @ 0415 PM 2.3 or 0.09 0.00 17.4 116.2 0
Kent 9E 11:59 PM 79 36 57 /28 68 / 47 11  (SW) 7.4 31.5 mph 250° @ 0429 PM 4.1 or 0.16 0.00 21.9 146.6 12
Knox City 3NW 11:59 PM 79 36 57 /28 68 / 47 13.1  (S) 8.7 35.1 mph 202° @ 1046 PM 4.3 or 0.17 0.00 21.3 156.9 39
Lake Alan Henry 1NW 11:59 PM 79 36 57 /28 68 / 47 11.7  (W) 8.4 32.6 mph 231° @ 0412 PM 4.3 or 0.17 0.00 20.4 147.5 34
Lake McClellan 2NW 11:59 PM 79 36 57 /28 68 / 47 16  (W) 12.3 44.1 mph 235° @ 0339 PM 4.3 or 0.17 0.00 19.7 152.8 156
Lamesa 2SE 11:55 PM 79 36 57 /28 68 / 47 12.6  (SW) 8.1 36.6 mph 217° @ 0440 PM 4.3 or 0.17 0.00 21.5 152.3 265
Lesley 2S 11:59 PM 79 36 57 /28 68 / 47 13.1  (NW) 9.4 38.4 mph 221° @ 0351 PM 4.6 or 0.18 0.00 21.1 161 144
Levelland 4S 11:59 PM 79 36 57 /28 68 / 47 14.2  (NW) 11.2 38.4 mph 229° @ 0414 PM 4.6 or 0.18 0.00 20.6 149.9 233
Lomax 1SSE 11:59 PM 79 36 57 /28 68 / 47 12.3  (SW) 8.9 30.5 mph 219° @ 0331 PM 4.3 or 0.17 0.00 21.9 153.1 64
Lubbock 3WNW TTU 11:55 PM 79 36 57 /28 68 / 47 10.5  (NW) 5.9 33.6 mph 218° @ 0305 PM 3.8 or 0.15 0.00 20.5 149.5 35
McAdoo 3NNW 11:59 PM 79 36 57 /28 68 / 47 14.3  (NE) 8.4 42.7 mph 238° @ 0342 PM 4.6 or 0.18 0.00 20.8 152.7 247
McCamey 1SSW 11:59 PM 79 36 57 /28 68 / 47 7  (SE) 5.8 30.9 mph 153° @ 0426 PM 3 or 0.12 0.00 19.5 131.8 2
McLean 1E 11:55 PM 79 36 57 /28 68 / 47 13.1  (W) 10.5 38.9 mph 216° @ 0440 PM 3.8 or 0.15 0.00 20.1 156.4 50
Memphis 1NE 11:59 PM 79 36 57 /28 68 / 47 8  (NW) 4.8 37.3 mph 201° @ 0458 PM 3 or 0.12 0.00 20.4 156.7 35
Menard 2NW 11:59 PM 79 36 57 /28 68 / 47 8.6  (SW) 6.1 29.1 mph 205° @ 1248 PM 2.8 or 0.11 0.00 17.5 118.2 0
Mertzon 3NNE 11:59 PM 79 36 57 /28 68 / 47 13.2  (S) 8.8 31.6 mph 189° @ 0619 PM 3.8 or 0.15 0.00 20.5 139.8 0
Morton 1ENE 11:55 PM 79 36 57 /28 68 / 47 12.9  (W) 9.1 40 mph 244° @ 0355 PM 4.3 or 0.17 0.00 20.3 148.6 140
Muleshoe 2SSW 11:55 PM 79 36 57 /28 68 / 47 14.3  (W) 10.4 43.3 mph 241° @ 0350 PM 4.3 or 0.17 0.00 22.3 165.8 340
New Home 11:59 PM 79 36 57 /28 68 / 47 12.3  (W) 5.6 36.6 mph 228° @ 0225 PM 4.3 or 0.17 0.00 19.8 143 311
Northfield 1S 11:55 PM 79 36 57 /28 68 / 47 12.1  (W) 7.7 34.5 mph 221° @ 0410 PM 4.3 or 0.17 0.00 19.4 146.6 75
O'Donnell 1N 11:55 PM 79 36 57 /28 68 / 47 13.8  (W) 7.6 38.4 mph 219° @ 0455 PM 4.6 or 0.18 0.00 3.6 130.2 320
Odell 4ENE 11:59 PM 79 36 57 /28 68 / 47 10.7  (N) 7.4 30.9 mph 205° @ 0403 PM 3.6 or 0.14 0.00 19.7 150.2 0
Olton 6S 11:55 PM 79 36 57 /28 68 / 47 13.4  (NE) 10 40.1 mph 229° @ 0340 PM 4.1 or 0.16 0.00 20.7 153.4 265
Paducah 10SW 11:55 PM 79 36 57 /28 68 / 47 13.6  (N) 8.3 33.5 mph 228° @ 1110 PM 4.6 or 0.18 0.00 3.9 144.1 55
Palo Duro 4E (JA Ranch) 11:59 PM 79 36 57 /28 68 / 47 12.7  (NW) 9.5 43.9 mph 227° @ 0442 PM 4.3 or 0.17 0.00 19.8 151.9 218
Palo Duro Canyon SP Floor 11:59 PM 79 36 57 /28 68 / 47 7.9  (NW) 4.3 33.5 mph 276° @ 0854 PM 3 or 0.12 0.00 18.7 143.6 1
Palo Duro Canyon State Park Rim 11:59 PM 79 36 57 /28 68 / 47 13.5  (W) 7.6 42.5 mph 216° @ 0311 PM 4.1 or 0.16 0.00 20.4 156.4 206
Palo Duro Reservoir 1NW 11:59 PM 79 36 57 /28 68 / 47 13.7  (W) 9.3 51.7 mph 18° @ 1103 PM 4.3 or 0.17 0.00 17.5 141.6 107
Pampa 2E 11:55 PM 79 36 57 /28 68 / 47 13.3  (SW) 9.1 36.8 mph 217° @ 0335 PM 3.6 or 0.14 0.00 17.5 137.2 0
Panhandle 1SSW 11:59 PM 79 36 57 /28 68 / 47 14.5  (W) 10.9 43.2 mph 228° @ 0301 PM 4.1 or 0.16 0.00 19.4 150.2 93
Plains 3N 11:55 PM 79 36 57 /28 68 / 47 13.8  (W) 10.6 36.5 mph 231° @ 0410 PM 4.3 or 0.17 0.00 21.5 154.8 200
Plainview 1S 11:59 PM 79 36 57 /28 68 / 47 10.7  (NW) 7.8 42.7 mph 221° @ 0421 PM 3.6 or 0.14 0.00 21.3 158.4 176
Post 1NE 11:59 PM 79 36 57 /28 68 / 47 11.7  (W) 8 37.3 mph 211° @ 0419 PM 4.3 or 0.17 0.00 20.6 149.4 59
Ralls 1SE 11:59 PM 79 36 57 /28 68 / 47 12.9  (N) 9.2 40.6 mph 222° @ 0354 PM 4.3 or 0.17 0.00 20.5 149.9 260
Reese Center 11:59 PM 79 36 57 /28 68 / 47 13.8  (N) 10.2 40.6 mph 249° @ 0415 PM 4.6 or 0.18 0.00 20.6 150.6 257
Roaring Springs 3N 11:59 PM 79 36 57 /28 68 / 47 13.2  (N) 10.1 41.7 mph 206° @ 0357 PM 4.3 or 0.17 0.00 20.9 155.1 210
Romero 11SSW 11:59 PM 79 36 57 /28 68 / 47 12.2  (NW) 8.8 42.9 mph 239° @ 0449 PM 3.8 or 0.15 0.00 17.3 134.6 168
Rotan 5W 11:59 PM 79 36 57 /28 68 / 47 18.9  (SW) 12.6 38.2 mph 212° @ 0334 PM 5.6 or 0.22 0.00 25.3 182.1 215
San Angelo 7NW 11:55 PM 79 36 57 /28 68 / 47 9.7  (S) 6.4 30.6 mph 195° @ 0425 PM 3.3 or 0.13 0.00 20.7 142.8 0
Seagraves 1SW 11:55 PM 79 36 57 /28 68 / 47 13  (W) 8.5 38.1 mph 219° @ 0330 PM 4.6 or 0.18 0.00 3.7 133.6 230
Segovia 7SSW 11:59 PM 79 36 57 /28 68 / 47 10  (S) 5.6 24.7 mph 182° @ 0401 PM 2.5 or 0.1 0.00 20 132.1 0
Seminole 2NNE 11:55 PM 79 36 57 /28 68 / 47 11.7  (W) 7.9 33 mph 224° @ 0530 PM 4.1 or 0.16 0.00 21.3 150.9 30
Seymour 3NW 11:55 PM 79 36 57 /28 68 / 47 10.4  (SW) 7.1 30.6 mph 215° @ 0255 PM 3.6 or 0.14 0.00 17.7 131.8 10
Sierra Blanca 1SSE 11:59 PM 79 36 57 /28 68 / 47 5.9  (W) 4.6 22.6 mph 214° @ 0229 PM 2.5 or 0.1 0.00 19.8 131.9 0
Silverton 7ESE 11:55 PM 79 36 57 /28 68 / 47 15.2  (W) 11.3 43.9 mph 218° @ 0300 PM 4.6 or 0.18 0.00 18.3 137.7 220
Slaton 2NE 11:59 PM 79 36 57 /28 68 / 47 14  (N) 11 39.5 mph 227° @ 0341 PM 4.6 or 0.18 0.00 21.3 155.4 269
Smyer 11:59 PM 79 36 57 /28 68 / 47 13.1  (NW) 10.2 39.6 mph 228° @ 0400 PM 4.3 or 0.17 0.00 21.3 155.3 239
Snyder 3E 11:55 PM 79 36 57 /28 68 / 47 11.8  (S) 5.2 34 mph 206° @ 0455 PM 4.3 or 0.17 0.00 18.6 132.8 5
Snyder 3SSW 11:59 PM 79 36 57 /28 68 / 47 12  (S) 8.2 33.5 mph 205° @ 0347 PM 4.3 or 0.17 0.00 20.8 148.3 47
South Plains 3ENE 11:59 PM 79 36 57 /28 68 / 47 12.5  (S) 9.1 40.3 mph 224° @ 0526 PM 4.1 or 0.16 0.00 20.3 151.4 200
Spur 1W 11:55 PM 79 36 57 /28 68 / 47 10.9  (N) 7.3 31.8 mph 220° @ 0445 PM 4.1 or 0.16 0.00 20.6 151.1 20
St. Lawrence 5SW 11:59 PM 79 36 57 /28 68 / 47 12  (S) 8.4 32.9 mph 195° @ 0106 PM 3.8 or 0.15 0.00 22.8 156.8 8
Stamford 5ESE 11:59 PM 79 36 57 /28 68 / 47 11.6  (S) 8.1 36.2 mph 240° @ 0228 PM 4.1 or 0.16 0.00 20.9 151.2 18
Sterling City 4WSW 11:59 PM 79 36 57 /28 68 / 47 12.3  (S) 8.8 28.1 mph 187° @ 0300 PM 4.1 or 0.16 0.00 17.4 120.9 0
Stinnett 1NNW 11:59 PM 79 36 57 /28 68 / 47 15.9  (W) 10.5 51.4 mph 9° @ 1153 PM 4.6 or 0.18 0.00 18 142.7 143
Stratford 4WNW 11:59 PM 79 36 57 /28 68 / 47 16.9  (W) 10.9 43 mph 10° @ 1110 PM 4.6 or 0.18 0.00 18.8 150.9 1
Sundown 8WSW 11:55 PM 79 36 57 /28 68 / 47 14.1  (W) 9.4 40.6 mph 229° @ 0255 PM 4.8 or 0.19 0.00 17.9 129.7 275
Sweetwater 11SW 11:59 PM 79 36 57 /28 68 / 47 14.2  (S) 10 31.4 mph 222° @ 0213 PM 4.3 or 0.17 0.00 22.7 159.6 63
Tahoka 3NNE 11:59 PM 79 36 57 /28 68 / 47 12.6  (W) 8 37.1 mph 207° @ 0217 PM 4.3 or 0.17 0.00 20.6 148.4 229
Tarzan 2WNW 11:59 PM 79 36 57 /28 68 / 47 11.5  (SW) 7.2 33.5 mph 201° @ 0404 PM 4.1 or 0.16 0.00 21.5 150.8 66
Tatum NM 2SW 11:55 PM 79 36 57 /28 68 / 47 14.6  (W) 9.2 36.3 mph 222° @ 0500 PM 4.6 or 0.18 0.00 21.7 155.9 305
Throckmorton 1SW 11:59 PM 79 36 57 /28 68 / 47 11.6  (SW) 6.3 30.8 mph 215° @ 1230 PM 4.1 or 0.16 0.00 21.2 154.6 0
Truscott 2SE 11:59 PM 79 36 57 /28 68 / 47 11.7  (S) 7.6 34 mph 215° @ 1100 PM 4.1 or 0.16 0.00 20 148.6 37
Tulia 2ENE 11:55 PM 79 36 57 /28 68 / 47 15.9  (W) 12.4 41.9 mph 246° @ 0455 PM 4.6 or 0.18 0.00 17.9 134.6 255
Turkey 2WSW 11:55 PM 79 36 57 /28 68 / 47 13.9  (W) 10.4 39.2 mph 193° @ 0240 PM 4.6 or 0.18 0.00 18.1 136.5 190
Umbarger 3NNE 11:59 PM 79 36 57 /28 68 / 47 17.2  (W) 13.5 44.9 mph 240° @ 0457 PM 4.6 or 0.18 0.00 19 145.4 228
Van Horn 3ENE 11:59 PM 79 36 57 /28 68 / 47 10.1  (SW) 6.3 30.3 mph 240° @ 0347 PM 4.1 or 0.16 0.00 22.8 152.4 0
Vega 4E 11:59 PM 79 36 57 /28 68 / 47 16.7  (SW) 12.7 49.3 mph 232° @ 0436 PM 4.6 or 0.18 0.00 19.3 148.2 338
Vigo Park 11:59 PM 79 36 57 /28 68 / 47 16.2  (SW) 11.8 47.7 mph 238° @ 0456 PM 4.8 or 0.19 0.00 18.5 139.7 245
Wall 2E 11:59 PM 79 36 57 /28 68 / 47 17.7  (SW) 12.8 33.5 mph 206° @ 0254 PM 4.3 or 0.17 0.00 21.1 144.9 0
Weinert 2NNE 11:59 PM 79 36 57 /28 68 / 47 13.4  (W) 9.2 33.3 mph 221° @ 0156 PM 4.3 or 0.17 0.00 19 139.5 59
Welch 11:59 PM 79 36 57 /28 68 / 47 12.8  (SW) 9.1 36.2 mph 219° @ 0416 PM 4.6 or 0.18 0.00 21.5 153.5 252
Wellington 6SE 11:59 PM 79 36 57 /28 68 / 47 11.1  (N) 7.1 37.3 mph 227° @ 0336 PM 3.8 or 0.15 0.00 21.8 167.4 44
White River Lake 6NW 11:59 PM 79 36 57 /28 68 / 47 13.3  (N) 9 39.5 mph 219° @ 0440 PM 4.6 or 0.18 0.00 21.5 157.1 183
Wolfforth 6SSW 11:59 PM 79 36 57 /28 68 / 47 13.3  (NW) 9.1 41.7 mph 222° @ 0221 PM 4.8 or 0.19 0.00 21 152.2 280

WestTexas Mesonet Home    Site Map/Menu  National Weather Service Lubbock   Soil Data   Latest Observation Page   Previous  Date   Next Last